Acme, PA

9:04 AM EDT on May 22, 2015 (GMT -0400)
Mammoth County Park | | Change Station
CLOSE
Current Station
Personal Weather Station
Location: Mt. Pleasant, PA
Elevation: 1150 ft
Nearby Weather Stations
Active Advisory: Frost Advisory

Elev 1150 ft 40.21 °N, 79.46 °W | Updated 5 seconds ago

Clear
Clear
50.7 °F
Feels Like 50.7 °F
N
10.0
Wind Variable Wind from SSW
Gusts 11.0 mph

Today
High -- | Low -- °F
--% Chance of Precip.
Yesterday
High -- | Low -- °F
Precip. -- in
5:56 AM 8:32 PM
Waxing Crescent, 21% visible
Pressure 30.13 in
Visibility 15.0 miles
Clouds Scattered Clouds 20000 ft
Dew Point 47 °F
Humidity 87%
Rainfall 0.00 in
Snow Depth Not available.
UV 3 out of 12
Pollen 9.60 out of 12
Air Quality Not available.
Flu Activity Sporadic
METAR KLBE 221245Z 23010KT 15SM SCT200 10/07 A3013

More Conditions Fewer Conditions

Pressure 30.13 in
Visibility 15.0 miles
Clouds Scattered Clouds 20000 ft
Dew Point 47 °F
Humidity 87%
Rainfall 0.00 in
Snow Depth Not available.
UV 3 out of 12
Pollen 9.60 out of 12
Air Quality Not available.
Flu Activity Sporadic
METAR KLBE 221245Z 23010KT 15SM SCT200 10/07 A3013

More Conditions Fewer Conditions

10-Day Weather Forecast

Almanac

Astronomy

May. 22, 2015 Rise Set
Actual Time
Civil Twilight
Nautical Twilight
Astronomical Twilight
Moon
Length of Visible Light
Length of Day
Tomorrow will be .
, % of the Moon is Illuminated

Today's Extremes

State Highs State Lows

Community

WunderPhotos

Upload Photos

1,823,210 photos uploaded!

WunderBlogs® & News

Nearby

Air Quality

  Air Quality AQ Index Pollutant
Not available.

Snow Depth

Station Depth Elevation

Earthquake Activity

City Distance Mag. Time & Date
Minimum magnitude displayed is 2.5.

Coastal Water Temperatures

Place Temperature

Stations

Nearby Weather Stations

Station Location Temp. Windchill Dew Point Humidity Wind Precip. Elev Updated Type
                   
Frost Advisory
Statement as of 3:17 AM EDT on May 22, 2015

... Frost advisory in effect from midnight tonight to 9 am EDT
Saturday...

The National Weather Service in Pittsburgh has issued a frost
advisory... which is in effect from midnight tonight to 9 am EDT
Saturday.

* Temperatures... in the lower to mid 30s.

* Impacts... sensitive plants may be damaged or destroyed.

Precautionary/preparedness actions...

A frost advisory means that widespread frost is expected.
Sensitive outdoor plants may be killed if left uncovered.